sensor_id;sensor_type;location;lat;lon;timestamp;P1;durP1;ratioP1;P2;durP2;ratioP2
23163;SDS011;31429;42.674;23.350;2024-01-30T00:00:10;10.40;;;8.17;;
23163;SDS011;31429;42.674;23.350;2024-01-30T00:01:12;10.07;;;7.38;;
23163;SDS011;31429;42.674;23.350;2024-01-30T00:02:14;9.07;;;7.60;;
23163;SDS011;31429;42.674;23.350;2024-01-30T00:03:15;9.27;;;8.32;;
23163;SDS011;31429;42.674;23.350;2024-01-30T00:04:16;9.53;;;7.97;;
23163;SDS011;31429;42.674;23.350;2024-01-30T00:05:17;8.95;;;7.60;;
23163;SDS011;31429;42.674;23.350;2024-01-30T00:06:18;8.97;;;7.43;;
23163;SDS011;31429;42.674;23.350;2024-01-30T00:07:19;8.55;;;7.55;;
23163;SDS011;31429;42.674;23.350;2024-01-30T00:08:20;7.87;;;7.07;;
23163;SDS011;31429;42.674;23.350;2024-01-30T00:09:20;7.70;;;6.90;;
23163;SDS011;31429;42.674;23.350;2024-01-30T00:10:21;9.20;;;8.17;;
23163;SDS011;31429;42.674;23.350;2024-01-30T00:11:22;10.43;;;8.83;;
23163;SDS011;31429;42.674;23.350;2024-01-30T00:12:25;9.25;;;6.80;;
23163;SDS011;31429;42.674;23.350;2024-01-30T00:13:26;8.95;;;7.93;;
23163;SDS011;31429;42.674;23.350;2024-01-30T00:14:27;8.53;;;7.57;;
23163;SDS011;31429;42.674;23.350;2024-01-30T00:15:28;9.87;;;8.13;;
23163;SDS011;31429;42.674;23.350;2024-01-30T00:16:29;9.50;;;7.33;;
23163;SDS011;31429;42.674;23.350;2024-01-30T00:17:31;8.97;;;7.60;;
23163;SDS011;31429;42.674;23.350;2024-01-30T00:18:32;8.90;;;7.25;;
23163;SDS011;31429;42.674;23.350;2024-01-30T00:19:32;9.33;;;7.77;;
23163;SDS011;31429;42.674;23.350;2024-01-30T00:20:33;8.40;;;7.57;;
23163;SDS011;31429;42.674;23.350;2024-01-30T00:21:34;8.40;;;7.40;;
23163;SDS011;31429;42.674;23.350;2024-01-30T00:22:35;10.27;;;8.27;;
23163;SDS011;31429;42.674;23.350;2024-01-30T00:23:36;9.03;;;8.00;;
23163;SDS011;31429;42.674;23.350;2024-01-30T00:24:37;8.87;;;7.90;;
23163;SDS011;31429;42.674;23.350;2024-01-30T00:25:37;11.57;;;9.20;;
23163;SDS011;31429;42.674;23.350;2024-01-30T00:26:38;8.77;;;7.90;;
23163;SDS011;31429;42.674;23.350;2024-01-30T00:27:39;7.80;;;7.00;;
23163;SDS011;31429;42.674;23.350;2024-01-30T00:39:05;9.07;;;8.07;;
23163;SDS011;31429;42.674;23.350;2024-01-30T00:40:09;10.73;;;9.63;;
23163;SDS011;31429;42.674;23.350;2024-01-30T00:41:30;9.32;;;8.20;;
23163;SDS011;31429;42.674;23.350;2024-01-30T00:42:36;10.35;;;8.55;;
23163;SDS011;31429;42.674;23.350;2024-01-30T00:43:44;13.48;;;11.02;;
23163;SDS011;31429;42.674;23.350;2024-01-30T00:44:45;8.77;;;7.88;;
23163;SDS011;31429;42.674;23.350;2024-01-30T00:45:51;9.50;;;8.32;;
23163;SDS011;31429;42.674;23.350;2024-01-30T00:46:54;10.65;;;9.10;;
23163;SDS011;31429;42.674;23.350;2024-01-30T00:47:55;9.77;;;8.77;;
23163;SDS011;31429;42.674;23.350;2024-01-30T00:48:56;10.30;;;9.00;;
23163;SDS011;31429;42.674;23.350;2024-01-30T00:49:57;10.17;;;8.77;;
23163;SDS011;31429;42.674;23.350;2024-01-30T00:50:57;10.03;;;8.23;;
23163;SDS011;31429;42.674;23.350;2024-01-30T00:51:58;9.90;;;8.47;;
23163;SDS011;31429;42.674;23.350;2024-01-30T00:52:59;8.10;;;7.27;;
23163;SDS011;31429;42.674;23.350;2024-01-30T00:54:00;9.10;;;8.07;;
23163;SDS011;31429;42.674;23.350;2024-01-30T00:55:05;10.30;;;9.05;;
23163;SDS011;31429;42.674;23.350;2024-01-30T00:56:06;9.07;;;8.10;;
23163;SDS011;31429;42.674;23.350;2024-01-30T00:57:08;9.63;;;7.95;;
23163;SDS011;31429;42.674;23.350;2024-01-30T00:58:09;11.57;;;8.48;;
23163;SDS011;31429;42.674;23.350;2024-01-30T00:59:11;10.20;;;8.63;;
23163;SDS011;31429;42.674;23.350;2024-01-30T01:00:12;10.07;;;7.55;;
23163;SDS011;31429;42.674;23.350;2024-01-30T01:01:33;9.23;;;8.20;;
23163;SDS011;31429;42.674;23.350;2024-01-30T01:02:34;12.67;;;8.53;;
23163;SDS011;31429;42.674;23.350;2024-01-30T01:03:35;9.50;;;8.50;;
23163;SDS011;31429;42.674;23.350;2024-01-30T01:04:36;10.23;;;8.20;;
23163;SDS011;31429;42.674;23.350;2024-01-30T01:05:37;10.13;;;8.37;;
23163;SDS011;31429;42.674;23.350;2024-01-30T01:06:38;10.93;;;8.47;;
23163;SDS011;31429;42.674;23.350;2024-01-30T01:07:39;9.07;;;8.00;;
23163;SDS011;31429;42.674;23.350;2024-01-30T01:08:59;8.88;;;7.97;;
23163;SDS011;31429;42.674;23.350;2024-01-30T01:10:00;10.10;;;8.90;;
23163;SDS011;31429;42.674;23.350;2024-01-30T01:11:02;9.80;;;8.47;;
23163;SDS011;31429;42.674;23.350;2024-01-30T01:12:04;9.40;;;8.43;;
23163;SDS011;31429;42.674;23.350;2024-01-30T01:13:05;9.25;;;8.27;;
23163;SDS011;31429;42.674;23.350;2024-01-30T01:14:06;12.97;;;8.10;;
23163;SDS011;31429;42.674;23.350;2024-01-30T01:15:07;9.33;;;8.03;;
23163;SDS011;31429;42.674;23.350;2024-01-30T01:16:10;12.50;;;9.10;;
23163;SDS011;31429;42.674;23.350;2024-01-30T01:17:10;11.37;;;9.73;;
23163;SDS011;31429;42.674;23.350;2024-01-30T01:18:31;10.50;;;9.20;;
23163;SDS011;31429;42.674;23.350;2024-01-30T01:19:32;9.87;;;8.50;;
23163;SDS011;31429;42.674;23.350;2024-01-30T01:20:33;10.60;;;8.60;;
23163;SDS011;31429;42.674;23.350;2024-01-30T01:21:34;10.03;;;8.47;;
23163;SDS011;31429;42.674;23.350;2024-01-30T01:22:34;9.57;;;8.43;;
23163;SDS011;31429;42.674;23.350;2024-01-30T01:23:35;9.50;;;8.50;;
23163;SDS011;31429;42.674;23.350;2024-01-30T01:24:36;9.97;;;8.80;;
23163;SDS011;31429;42.674;23.350;2024-01-30T01:25:37;10.33;;;8.30;;
23163;SDS011;31429;42.674;23.350;2024-01-30T01:26:39;11.80;;;9.07;;
23163;SDS011;31429;42.674;23.350;2024-01-30T01:27:40;10.52;;;8.82;;
23163;SDS011;31429;42.674;23.350;2024-01-30T01:29:01;10.90;;;8.70;;
23163;SDS011;31429;42.674;23.350;2024-01-30T01:30:04;11.07;;;9.25;;
23163;SDS011;31429;42.674;23.350;2024-01-30T01:31:07;9.85;;;8.85;;
23163;SDS011;31429;42.674;23.350;2024-01-30T01:32:09;11.73;;;8.68;;
23163;SDS011;31429;42.674;23.350;2024-01-30T01:33:10;9.90;;;8.90;;
23163;SDS011;31429;42.674;23.350;2024-01-30T01:34:10;11.13;;;9.40;;
23163;SDS011;31429;42.674;23.350;2024-01-30T01:35:16;10.15;;;8.57;;
23163;SDS011;31429;42.674;23.350;2024-01-30T01:36:17;10.13;;;8.52;;
23163;SDS011;31429;42.674;23.350;2024-01-30T01:37:19;9.93;;;8.23;;
23163;SDS011;31429;42.674;23.350;2024-01-30T01:38:39;8.50;;;7.57;;
23163;SDS011;31429;42.674;23.350;2024-01-30T01:39:40;11.53;;;9.23;;
23163;SDS011;31429;42.674;23.350;2024-01-30T01:40:40;9.90;;;8.77;;
23163;SDS011;31429;42.674;23.350;2024-01-30T01:41:43;11.53;;;9.20;;
23163;SDS011;31429;42.674;23.350;2024-01-30T01:42:43;10.50;;;8.75;;
23163;SDS011;31429;42.674;23.350;2024-01-30T01:43:44;10.07;;;8.87;;
23163;SDS011;31429;42.674;23.350;2024-01-30T01:45:05;11.68;;;9.45;;
23163;SDS011;31429;42.674;23.350;2024-01-30T01:46:06;11.70;;;9.73;;
23163;SDS011;31429;42.674;23.350;2024-01-30T01:47:47;11.02;;;8.68;;
23163;SDS011;31429;42.674;23.350;2024-01-30T01:49:28;11.05;;;9.48;;
23163;SDS011;31429;42.674;23.350;2024-01-30T01:50:29;12.63;;;8.40;;
23163;SDS011;31429;42.674;23.350;2024-01-30T01:52:10;9.55;;;8.38;;
23163;SDS011;31429;42.674;23.350;2024-01-30T01:53:11;10.43;;;8.30;;
23163;SDS011;31429;42.674;23.350;2024-01-30T01:54:13;11.07;;;9.00;;
23163;SDS011;31429;42.674;23.350;2024-01-30T01:55:16;9.07;;;8.18;;
23163;SDS011;31429;42.674;23.350;2024-01-30T01:56:40;10.45;;;8.38;;
23163;SDS011;31429;42.674;23.350;2024-01-30T01:58:02;9.43;;;8.27;;
23163;SDS011;31429;42.674;23.350;2024-01-30T01:59:05;9.60;;;8.23;;
23163;SDS011;31429;42.674;23.350;2024-01-30T02:00:27;10.60;;;9.10;;
23163;SDS011;31429;42.674;23.350;2024-01-30T02:01:29;10.88;;;9.18;;
23163;SDS011;31429;42.674;23.350;2024-01-30T02:02:54;10.77;;;8.32;;
23163;SDS011;31429;42.674;23.350;2024-01-30T02:03:55;10.93;;;8.73;;
23163;SDS011;31429;42.674;23.350;2024-01-30T02:05:16;8.65;;;7.72;;
23163;SDS011;31429;42.674;23.350;2024-01-30T02:06:16;10.73;;;8.60;;
23163;SDS011;31429;42.674;23.350;2024-01-30T02:07:57;10.52;;;8.93;;
23163;SDS011;31429;42.674;23.350;2024-01-30T02:08:59;10.15;;;8.70;;
23163;SDS011;31429;42.674;23.350;2024-01-30T02:10:00;12.23;;;9.13;;
23163;SDS011;31429;42.674;23.350;2024-01-30T02:11:01;10.57;;;8.80;;
23163;SDS011;31429;42.674;23.350;2024-01-30T02:12:03;10.27;;;8.73;;
23163;SDS011;31429;42.674;23.350;2024-01-30T02:13:04;9.88;;;8.77;;
23163;SDS011;31429;42.674;23.350;2024-01-30T02:14:05;10.57;;;8.90;;
23163;SDS011;31429;42.674;23.350;2024-01-30T02:15:06;9.60;;;8.60;;
23163;SDS011;31429;42.674;23.350;2024-01-30T02:16:26;11.35;;;9.02;;
23163;SDS011;31429;42.674;23.350;2024-01-30T02:17:47;10.55;;;8.98;;
23163;SDS011;31429;42.674;23.350;2024-01-30T02:18:48;11.40;;;8.97;;
23163;SDS011;31429;42.674;23.350;2024-01-30T02:19:49;10.30;;;9.23;;
23163;SDS011;31429;42.674;23.350;2024-01-30T02:20:50;9.37;;;8.37;;
23163;SDS011;31429;42.674;23.350;2024-01-30T02:22:12;10.35;;;8.52;;
23163;SDS011;31429;42.674;23.350;2024-01-30T02:23:13;10.30;;;8.35;;
23163;SDS011;31429;42.674;23.350;2024-01-30T02:24:16;9.52;;;8.35;;
23163;SDS011;31429;42.674;23.350;2024-01-30T02:25:17;9.80;;;8.13;;
23163;SDS011;31429;42.674;23.350;2024-01-30T02:26:17;9.03;;;7.87;;
23163;SDS011;31429;42.674;23.350;2024-01-30T02:27:18;9.07;;;8.07;;
23163;SDS011;31429;42.674;23.350;2024-01-30T02:28:19;10.97;;;8.77;;
23163;SDS011;31429;42.674;23.350;2024-01-30T02:29:20;9.35;;;8.40;;
23163;SDS011;31429;42.674;23.350;2024-01-30T02:30:21;9.80;;;8.60;;
23163;SDS011;31429;42.674;23.350;2024-01-30T02:31:22;9.67;;;8.57;;
23163;SDS011;31429;42.674;23.350;2024-01-30T02:32:24;8.90;;;8.00;;
23163;SDS011;31429;42.674;23.350;2024-01-30T02:33:25;8.87;;;7.77;;
23163;SDS011;31429;42.674;23.350;2024-01-30T02:34:26;10.47;;;8.50;;
23163;SDS011;31429;42.674;23.350;2024-01-30T02:35:27;10.53;;;7.97;;
23163;SDS011;31429;42.674;23.350;2024-01-30T02:36:29;9.40;;;7.83;;
23163;SDS011;31429;42.674;23.350;2024-01-30T02:37:30;8.98;;;7.90;;
23163;SDS011;31429;42.674;23.350;2024-01-30T02:38:30;9.50;;;8.53;;
23163;SDS011;31429;42.674;23.350;2024-01-30T02:39:31;8.80;;;7.90;;
23163;SDS011;31429;42.674;23.350;2024-01-30T02:40:32;8.80;;;7.87;;
23163;SDS011;31429;42.674;23.350;2024-01-30T02:41:33;9.43;;;7.93;;
23163;SDS011;31429;42.674;23.350;2024-01-30T02:42:33;8.33;;;7.53;;
23163;SDS011;31429;42.674;23.350;2024-01-30T02:43:34;9.07;;;8.17;;
23163;SDS011;31429;42.674;23.350;2024-01-30T02:44:35;9.73;;;7.77;;
23163;SDS011;31429;42.674;23.350;2024-01-30T02:45:36;9.70;;;7.97;;
23163;SDS011;31429;42.674;23.350;2024-01-30T02:46:37;9.20;;;8.17;;
23163;SDS011;31429;42.674;23.350;2024-01-30T02:47:38;9.17;;;7.93;;
23163;SDS011;31429;42.674;23.350;2024-01-30T02:48:39;9.10;;;7.95;;
23163;SDS011;31429;42.674;23.350;2024-01-30T02:49:42;8.43;;;7.50;;
23163;SDS011;31429;42.674;23.350;2024-01-30T02:50:43;8.93;;;8.05;;
23163;SDS011;31429;42.674;23.350;2024-01-30T02:51:45;9.20;;;8.20;;
23163;SDS011;31429;42.674;23.350;2024-01-30T02:52:46;8.48;;;7.35;;
23163;SDS011;31429;42.674;23.350;2024-01-30T02:53:47;8.57;;;7.67;;
23163;SDS011;31429;42.674;23.350;2024-01-30T02:54:48;8.30;;;7.50;;
23163;SDS011;31429;42.674;23.350;2024-01-30T02:55:48;9.77;;;8.07;;
23163;SDS011;31429;42.674;23.350;2024-01-30T02:56:58;9.33;;;8.03;;
23163;SDS011;31429;42.674;23.350;2024-01-30T02:57:59;7.90;;;7.10;;
23163;SDS011;31429;42.674;23.350;2024-01-30T02:59:03;8.70;;;7.80;;
23163;SDS011;31429;42.674;23.350;2024-01-30T03:00:09;10.32;;;7.82;;
23163;SDS011;31429;42.674;23.350;2024-01-30T03:01:15;9.00;;;7.57;;
23163;SDS011;31429;42.674;23.350;2024-01-30T03:02:38;9.70;;;7.95;;
23163;SDS011;31429;42.674;23.350;2024-01-30T03:04:10;8.43;;;7.13;;
23163;SDS011;31429;42.674;23.350;2024-01-30T03:05:39;9.35;;;7.85;;
23163;SDS011;31429;42.674;23.350;2024-01-30T03:07:59;7.88;;;6.90;;
23163;SDS011;31429;42.674;23.350;2024-01-30T03:09:05;7.80;;;6.75;;
23163;SDS011;31429;42.674;23.350;2024-01-30T03:10:09;8.88;;;7.55;;
23163;SDS011;31429;42.674;23.350;2024-01-30T03:11:22;7.63;;;6.88;;
23163;SDS011;31429;42.674;23.350;2024-01-30T03:12:26;8.17;;;7.27;;
23163;SDS011;31429;42.674;23.350;2024-01-30T03:13:28;8.50;;;6.97;;
23163;SDS011;31429;42.674;23.350;2024-01-30T03:14:51;8.32;;;6.95;;
23163;SDS011;31429;42.674;23.350;2024-01-30T03:15:57;8.25;;;7.45;;
23163;SDS011;31429;42.674;23.350;2024-01-30T03:16:58;7.78;;;7.03;;
23163;SDS011;31429;42.674;23.350;2024-01-30T03:18:05;8.77;;;7.13;;
23163;SDS011;31429;42.674;23.350;2024-01-30T03:19:06;12.13;;;7.57;;
23163;SDS011;31429;42.674;23.350;2024-01-30T03:20:09;8.13;;;7.32;;
23163;SDS011;31429;42.674;23.350;2024-01-30T03:21:13;9.57;;;7.47;;
23163;SDS011;31429;42.674;23.350;2024-01-30T03:22:21;8.20;;;7.00;;
23163;SDS011;31429;42.674;23.350;2024-01-30T03:23:23;8.55;;;6.80;;
23163;SDS011;31429;42.674;23.350;2024-01-30T03:24:30;7.25;;;6.55;;
23163;SDS011;31429;42.674;23.350;2024-01-30T03:25:36;8.35;;;6.97;;
23163;SDS011;31429;42.674;23.350;2024-01-30T03:26:59;7.40;;;6.65;;
23163;SDS011;31429;42.674;23.350;2024-01-30T03:28:05;8.23;;;7.25;;
23163;SDS011;31429;42.674;23.350;2024-01-30T03:29:15;7.85;;;7.15;;
23163;SDS011;31429;42.674;23.350;2024-01-30T03:30:17;8.38;;;7.45;;
23163;SDS011;31429;42.674;23.350;2024-01-30T03:31:18;8.23;;;7.43;;
23163;SDS011;31429;42.674;23.350;2024-01-30T03:32:20;7.22;;;6.53;;
23163;SDS011;31429;42.674;23.350;2024-01-30T03:33:49;7.22;;;6.47;;
23163;SDS011;31429;42.674;23.350;2024-01-30T03:34:50;9.43;;;7.00;;
23163;SDS011;31429;42.674;23.350;2024-01-30T03:36:02;9.15;;;7.35;;
23163;SDS011;31429;42.674;23.350;2024-01-30T03:37:08;8.75;;;6.63;;
23163;SDS011;31429;42.674;23.350;2024-01-30T03:38:16;9.68;;;8.27;;
23163;SDS011;31429;42.674;23.350;2024-01-30T03:39:22;7.43;;;6.63;;
23163;SDS011;31429;42.674;23.350;2024-01-30T03:40:25;7.65;;;6.82;;
23163;SDS011;31429;42.674;23.350;2024-01-30T03:41:28;8.75;;;7.35;;
23163;SDS011;31429;42.674;23.350;2024-01-30T03:42:35;9.90;;;7.10;;
23163;SDS011;31429;42.674;23.350;2024-01-30T03:43:41;8.15;;;7.18;;
23163;SDS011;31429;42.674;23.350;2024-01-30T03:44:45;7.22;;;6.50;;
23163;SDS011;31429;42.674;23.350;2024-01-30T03:46:06;7.60;;;6.88;;
23163;SDS011;31429;42.674;23.350;2024-01-30T03:47:07;7.70;;;6.90;;
23163;SDS011;31429;42.674;23.350;2024-01-30T03:48:12;8.35;;;7.07;;
23163;SDS011;31429;42.674;23.350;2024-01-30T03:49:16;8.02;;;6.95;;
23163;SDS011;31429;42.674;23.350;2024-01-30T03:51:36;9.40;;;7.20;;
23163;SDS011;31429;42.674;23.350;2024-01-30T03:52:37;9.43;;;6.78;;
23163;SDS011;31429;42.674;23.350;2024-01-30T03:53:47;8.60;;;7.70;;
23163;SDS011;31429;42.674;23.350;2024-01-30T03:54:48;8.68;;;6.63;;
23163;SDS011;31429;42.674;23.350;2024-01-30T03:55:55;7.50;;;6.68;;
23163;SDS011;31429;42.674;23.350;2024-01-30T03:56:59;8.63;;;6.95;;
23163;SDS011;31429;42.674;23.350;2024-01-30T03:58:06;7.47;;;6.70;;
23163;SDS011;31429;42.674;23.350;2024-01-30T03:59:07;10.50;;;7.80;;
23163;SDS011;31429;42.674;23.350;2024-01-30T04:00:08;11.57;;;7.93;;
23163;SDS011;31429;42.674;23.350;2024-01-30T04:01:12;7.65;;;6.82;;
23163;SDS011;31429;42.674;23.350;2024-01-30T04:02:19;6.95;;;6.25;;
23163;SDS011;31429;42.674;23.350;2024-01-30T04:03:26;10.32;;;6.65;;
23163;SDS011;31429;42.674;23.350;2024-01-30T04:04:30;8.68;;;7.05;;
23163;SDS011;31429;42.674;23.350;2024-01-30T04:05:36;6.82;;;6.13;;
23163;SDS011;31429;42.674;23.350;2024-01-30T04:06:39;6.97;;;5.65;;
23163;SDS011;31429;42.674;23.350;2024-01-30T04:07:42;8.77;;;7.22;;
23163;SDS011;31429;42.674;23.350;2024-01-30T04:08:45;6.72;;;6.03;;
23163;SDS011;31429;42.674;23.350;2024-01-30T04:09:51;7.47;;;6.30;;
23163;SDS011;31429;42.674;23.350;2024-01-30T04:10:56;7.78;;;6.43;;
23163;SDS011;31429;42.674;23.350;2024-01-30T04:11:57;7.75;;;6.03;;
23163;SDS011;31429;42.674;23.350;2024-01-30T04:13:21;6.63;;;5.85;;
23163;SDS011;31429;42.674;23.350;2024-01-30T04:14:24;12.05;;;6.60;;
23163;SDS011;31429;42.674;23.350;2024-01-30T04:15:35;8.00;;;7.20;;
23163;SDS011;31429;42.674;23.350;2024-01-30T04:16:39;7.90;;;7.10;;
23163;SDS011;31429;42.674;23.350;2024-01-30T04:17:44;7.72;;;6.85;;
23163;SDS011;31429;42.674;23.350;2024-01-30T04:18:48;6.80;;;6.20;;
23163;SDS011;31429;42.674;23.350;2024-01-30T04:19:49;6.70;;;6.10;;
23163;SDS011;31429;42.674;23.350;2024-01-30T04:20:53;8.60;;;6.43;;
23163;SDS011;31429;42.674;23.350;2024-01-30T04:22:17;6.68;;;5.97;;
23163;SDS011;31429;42.674;23.350;2024-01-30T04:23:18;7.25;;;6.35;;
23163;SDS011;31429;42.674;23.350;2024-01-30T04:24:20;7.77;;;6.27;;
23163;SDS011;31429;42.674;23.350;2024-01-30T04:25:44;7.30;;;6.60;;
23163;SDS011;31429;42.674;23.350;2024-01-30T04:27:08;7.10;;;6.40;;
23163;SDS011;31429;42.674;23.350;2024-01-30T04:28:11;8.20;;;6.63;;
23163;SDS011;31429;42.674;23.350;2024-01-30T04:29:15;7.40;;;6.10;;
23163;SDS011;31429;42.674;23.350;2024-01-30T04:30:16;8.40;;;5.73;;
23163;SDS011;31429;42.674;23.350;2024-01-30T04:31:17;7.67;;;6.20;;
23163;SDS011;31429;42.674;23.350;2024-01-30T04:32:18;6.97;;;6.20;;
23163;SDS011;31429;42.674;23.350;2024-01-30T04:33:18;8.13;;;6.20;;
23163;SDS011;31429;42.674;23.350;2024-01-30T04:34:19;6.67;;;6.07;;
23163;SDS011;31429;42.674;23.350;2024-01-30T04:35:20;7.20;;;5.83;;
23163;SDS011;31429;42.674;23.350;2024-01-30T04:36:43;6.45;;;5.80;;
23163;SDS011;31429;42.674;23.350;2024-01-30T04:38:04;7.88;;;6.55;;
23163;SDS011;31429;42.674;23.350;2024-01-30T04:39:04;8.20;;;6.23;;
23163;SDS011;31429;42.674;23.350;2024-01-30T04:40:10;6.80;;;5.90;;
23163;SDS011;31429;42.674;23.350;2024-01-30T04:41:11;7.78;;;6.72;;
23163;SDS011;31429;42.674;23.350;2024-01-30T04:42:12;9.03;;;6.63;;
23163;SDS011;31429;42.674;23.350;2024-01-30T04:43:13;6.40;;;5.80;;
23163;SDS011;31429;42.674;23.350;2024-01-30T04:44:33;8.13;;;7.32;;
23163;SDS011;31429;42.674;23.350;2024-01-30T04:45:34;6.90;;;6.20;;
23163;SDS011;31429;42.674;23.350;2024-01-30T04:46:35;10.23;;;5.90;;
23163;SDS011;31429;42.674;23.350;2024-01-30T04:47:36;6.97;;;6.23;;
23163;SDS011;31429;42.674;23.350;2024-01-30T04:48:36;8.00;;;6.77;;
23163;SDS011;31429;42.674;23.350;2024-01-30T04:49:38;9.67;;;6.57;;
23163;SDS011;31429;42.674;23.350;2024-01-30T04:50:42;8.98;;;6.43;;
23163;SDS011;31429;42.674;23.350;2024-01-30T04:51:43;7.93;;;7.13;;
23163;SDS011;31429;42.674;23.350;2024-01-30T04:52:44;9.50;;;6.87;;
23163;SDS011;31429;42.674;23.350;2024-01-30T04:53:44;8.30;;;6.60;;
23163;SDS011;31429;42.674;23.350;2024-01-30T04:54:45;6.63;;;5.77;;
23163;SDS011;31429;42.674;23.350;2024-01-30T04:55:47;7.03;;;6.33;;
23163;SDS011;31429;42.674;23.350;2024-01-30T04:56:48;8.77;;;6.28;;
23163;SDS011;31429;42.674;23.350;2024-01-30T04:57:49;7.20;;;5.70;;
23163;SDS011;31429;42.674;23.350;2024-01-30T04:58:50;7.23;;;6.50;;
23163;SDS011;31429;42.674;23.350;2024-01-30T04:59:50;7.80;;;6.57;;
23163;SDS011;31429;42.674;23.350;2024-01-30T05:00:51;13.00;;;6.70;;
23163;SDS011;31429;42.674;23.350;2024-01-30T05:01:52;10.70;;;6.33;;
23163;SDS011;31429;42.674;23.350;2024-01-30T05:02:54;12.20;;;6.83;;
23163;SDS011;31429;42.674;23.350;2024-01-30T05:03:55;7.57;;;6.28;;
23163;SDS011;31429;42.674;23.350;2024-01-30T05:04:56;7.20;;;5.37;;
23163;SDS011;31429;42.674;23.350;2024-01-30T05:06:24;7.05;;;6.03;;
23163;SDS011;31429;42.674;23.350;2024-01-30T05:07:26;7.70;;;5.80;;
23163;SDS011;31429;42.674;23.350;2024-01-30T05:08:26;6.70;;;5.90;;
23163;SDS011;31429;42.674;23.350;2024-01-30T05:09:27;7.53;;;6.10;;
23163;SDS011;31429;42.674;23.350;2024-01-30T05:10:49;5.93;;;5.40;;
23163;SDS011;31429;42.674;23.350;2024-01-30T05:11:50;9.02;;;5.75;;
23163;SDS011;31429;42.674;23.350;2024-01-30T05:12:51;7.00;;;5.67;;
23163;SDS011;31429;42.674;23.350;2024-01-30T05:13:52;6.87;;;5.37;;
23163;SDS011;31429;42.674;23.350;2024-01-30T05:14:53;5.80;;;5.30;;
23163;SDS011;31429;42.674;23.350;2024-01-30T05:15:53;8.00;;;6.03;;
23163;SDS011;31429;42.674;23.350;2024-01-30T05:16:54;8.03;;;5.80;;
23163;SDS011;31429;42.674;23.350;2024-01-30T05:17:55;7.90;;;6.03;;
23163;SDS011;31429;42.674;23.350;2024-01-30T05:18:56;6.93;;;5.93;;
23163;SDS011;31429;42.674;23.350;2024-01-30T05:19:56;7.57;;;6.00;;
23163;SDS011;31429;42.674;23.350;2024-01-30T05:20:57;12.00;;;6.90;;
23163;SDS011;31429;42.674;23.350;2024-01-30T05:21:58;12.43;;;6.40;;
23163;SDS011;31429;42.674;23.350;2024-01-30T05:22:59;9.47;;;7.40;;
23163;SDS011;31429;42.674;23.350;2024-01-30T05:24:00;10.40;;;7.13;;
23163;SDS011;31429;42.674;23.350;2024-01-30T05:25:00;9.27;;;6.83;;
23163;SDS011;31429;42.674;23.350;2024-01-30T05:26:03;10.32;;;7.30;;
23163;SDS011;31429;42.674;23.350;2024-01-30T05:27:04;9.48;;;6.95;;
23163;SDS011;31429;42.674;23.350;2024-01-30T05:28:05;9.73;;;6.68;;
23163;SDS011;31429;42.674;23.350;2024-01-30T05:29:06;9.37;;;7.33;;
23163;SDS011;31429;42.674;23.350;2024-01-30T05:30:27;19.15;;;7.53;;
23163;SDS011;31429;42.674;23.350;2024-01-30T05:31:28;21.83;;;7.47;;
23163;SDS011;31429;42.674;23.350;2024-01-30T05:32:48;12.95;;;7.18;;
23163;SDS011;31429;42.674;23.350;2024-01-30T05:34:09;9.50;;;7.03;;
23163;SDS011;31429;42.674;23.350;2024-01-30T05:35:10;9.37;;;7.23;;
23163;SDS011;31429;42.674;23.350;2024-01-30T05:36:11;13.77;;;7.53;;
23163;SDS011;31429;42.674;23.350;2024-01-30T05:37:32;18.17;;;7.78;;
23163;SDS011;31429;42.674;23.350;2024-01-30T05:38:33;21.93;;;8.33;;
23163;SDS011;31429;42.674;23.350;2024-01-30T05:39:34;13.83;;;7.70;;
23163;SDS011;31429;42.674;23.350;2024-01-30T05:40:54;15.25;;;8.00;;
23163;SDS011;31429;42.674;23.350;2024-01-30T05:41:57;15.83;;;8.30;;
23163;SDS011;31429;42.674;23.350;2024-01-30T05:42:57;17.98;;;9.10;;
23163;SDS011;31429;42.674;23.350;2024-01-30T05:44:18;19.25;;;8.73;;
23163;SDS011;31429;42.674;23.350;2024-01-30T05:45:19;21.00;;;8.67;;
23163;SDS011;31429;42.674;23.350;2024-01-30T05:46:20;14.65;;;8.27;;
23163;SDS011;31429;42.674;23.350;2024-01-30T05:47:20;12.80;;;8.17;;
23163;SDS011;31429;42.674;23.350;2024-01-30T05:48:21;13.60;;;7.63;;
23163;SDS011;31429;42.674;23.350;2024-01-30T05:49:22;14.57;;;8.27;;
23163;SDS011;31429;42.674;23.350;2024-01-30T05:50:23;13.33;;;8.53;;
23163;SDS011;31429;42.674;23.350;2024-01-30T05:51:44;15.32;;;8.45;;
23163;SDS011;31429;42.674;23.350;2024-01-30T05:52:44;14.67;;;8.20;;
23163;SDS011;31429;42.674;23.350;2024-01-30T05:53:45;19.60;;;9.90;;
23163;SDS011;31429;42.674;23.350;2024-01-30T05:54:46;26.00;;;9.23;;
23163;SDS011;31429;42.674;23.350;2024-01-30T05:55:47;23.93;;;11.73;;
23163;SDS011;31429;42.674;23.350;2024-01-30T05:56:47;17.73;;;10.17;;
23163;SDS011;31429;42.674;23.350;2024-01-30T05:57:50;15.97;;;10.37;;
23163;SDS011;31429;42.674;23.350;2024-01-30T05:58:52;22.55;;;10.25;;
23163;SDS011;31429;42.674;23.350;2024-01-30T05:59:53;17.83;;;9.43;;
23163;SDS011;31429;42.674;23.350;2024-01-30T06:00:54;18.63;;;9.63;;
23163;SDS011;31429;42.674;23.350;2024-01-30T06:01:55;18.63;;;9.30;;
23163;SDS011;31429;42.674;23.350;2024-01-30T06:02:55;28.40;;;9.97;;
23163;SDS011;31429;42.674;23.350;2024-01-30T06:03:56;23.00;;;9.33;;
23163;SDS011;31429;42.674;23.350;2024-01-30T06:04:58;13.43;;;9.07;;
23163;SDS011;31429;42.674;23.350;2024-01-30T06:05:59;17.83;;;8.48;;
23163;SDS011;31429;42.674;23.350;2024-01-30T06:06:59;13.63;;;8.83;;
23163;SDS011;31429;42.674;23.350;2024-01-30T06:08:20;18.38;;;9.38;;
23163;SDS011;31429;42.674;23.350;2024-01-30T06:09:21;18.70;;;9.90;;
23163;SDS011;31429;42.674;23.350;2024-01-30T06:10:22;16.47;;;9.43;;
23163;SDS011;31429;42.674;23.350;2024-01-30T06:11:22;20.77;;;10.07;;
23163;SDS011;31429;42.674;23.350;2024-01-30T06:12:23;21.87;;;9.70;;
23163;SDS011;31429;42.674;23.350;2024-01-30T06:13:25;14.50;;;9.23;;
23163;SDS011;31429;42.674;23.350;2024-01-30T06:14:26;21.15;;;8.98;;
23163;SDS011;31429;42.674;23.350;2024-01-30T06:15:27;22.17;;;9.33;;
23163;SDS011;31429;42.674;23.350;2024-01-30T06:16:30;37.10;;;11.25;;
23163;SDS011;31429;42.674;23.350;2024-01-30T06:17:31;33.33;;;10.93;;
23163;SDS011;31429;42.674;23.350;2024-01-30T06:18:32;28.77;;;10.93;;
23163;SDS011;31429;42.674;23.350;2024-01-30T06:19:33;23.37;;;10.00;;
23163;SDS011;31429;42.674;23.350;2024-01-30T06:20:33;39.80;;;11.30;;
23163;SDS011;31429;42.674;23.350;2024-01-30T06:21:34;23.00;;;10.20;;
23163;SDS011;31429;42.674;23.350;2024-01-30T06:22:36;23.13;;;10.43;;
23163;SDS011;31429;42.674;23.350;2024-01-30T06:23:37;21.77;;;10.47;;
23163;SDS011;31429;42.674;23.350;2024-01-30T06:24:38;23.27;;;9.87;;
23163;SDS011;31429;42.674;23.350;2024-01-30T06:25:39;22.40;;;10.37;;
23163;SDS011;31429;42.674;23.350;2024-01-30T06:26:40;22.87;;;9.67;;
23163;SDS011;31429;42.674;23.350;2024-01-30T06:28:00;19.70;;;9.20;;
23163;SDS011;31429;42.674;23.350;2024-01-30T06:29:02;35.50;;;10.50;;
23163;SDS011;31429;42.674;23.350;2024-01-30T06:30:04;24.05;;;10.60;;
23163;SDS011;31429;42.674;23.350;2024-01-30T06:31:05;23.20;;;10.70;;
23163;SDS011;31429;42.674;23.350;2024-01-30T06:32:06;23.80;;;11.03;;
23163;SDS011;31429;42.674;23.350;2024-01-30T06:33:07;26.07;;;11.00;;
23163;SDS011;31429;42.674;23.350;2024-01-30T06:34:07;31.43;;;11.33;;